sensor_id;sensor_type;location;lat;lon;timestamp;temperature;humidity
13433;DHT22;6789;47.678;9.158;2024-02-26T00:04:09;6.50;99.90
13433;DHT22;6789;47.678;9.158;2024-02-26T00:09:02;6.50;99.90
13433;DHT22;6789;47.678;9.158;2024-02-26T00:13:57;6.60;99.90
13433;DHT22;6789;47.678;9.158;2024-02-26T00:18:52;6.60;99.90
13433;DHT22;6789;47.678;9.158;2024-02-26T00:23:44;6.60;99.90
13433;DHT22;6789;47.678;9.158;2024-02-26T00:28:35;6.50;99.90
13433;DHT22;6789;47.678;9.158;2024-02-26T00:33:27;6.50;99.90
13433;DHT22;6789;47.678;9.158;2024-02-26T00:38:19;6.60;99.90
13433;DHT22;6789;47.678;9.158;2024-02-26T00:43:13;6.60;99.90
13433;DHT22;6789;47.678;9.158;2024-02-26T00:48:05;6.50;99.90
13433;DHT22;6789;47.678;9.158;2024-02-26T00:52:57;6.40;99.90
13433;DHT22;6789;47.678;9.158;2024-02-26T00:57:49;6.40;99.90
13433;DHT22;6789;47.678;9.158;2024-02-26T01:02:40;6.50;99.90
13433;DHT22;6789;47.678;9.158;2024-02-26T01:07:38;6.60;99.90
13433;DHT22;6789;47.678;9.158;2024-02-26T01:12:32;6.70;99.90
13433;DHT22;6789;47.678;9.158;2024-02-26T01:17:26;6.70;99.90
13433;DHT22;6789;47.678;9.158;2024-02-26T01:22:18;6.70;99.90
13433;DHT22;6789;47.678;9.158;2024-02-26T01:27:10;6.60;99.90
13433;DHT22;6789;47.678;9.158;2024-02-26T01:32:01;6.50;99.90
13433;DHT22;6789;47.678;9.158;2024-02-26T01:36:55;6.50;99.90
13433;DHT22;6789;47.678;9.158;2024-02-26T01:41:47;6.50;99.90
13433;DHT22;6789;47.678;9.158;2024-02-26T01:46:39;6.50;99.90
13433;DHT22;6789;47.678;9.158;2024-02-26T01:51:32;6.60;99.90
13433;DHT22;6789;47.678;9.158;2024-02-26T01:56:25;6.50;99.90
13433;DHT22;6789;47.678;9.158;2024-02-26T02:01:22;6.60;99.90
13433;DHT22;6789;47.678;9.158;2024-02-26T02:06:19;6.50;99.90
13433;DHT22;6789;47.678;9.158;2024-02-26T02:11:12;6.50;99.90
13433;DHT22;6789;47.678;9.158;2024-02-26T02:16:06;6.50;99.90
13433;DHT22;6789;47.678;9.158;2024-02-26T02:21:00;6.50;99.90
13433;DHT22;6789;47.678;9.158;2024-02-26T02:25:53;6.50;99.90
13433;DHT22;6789;47.678;9.158;2024-02-26T02:30:46;6.60;99.90
13433;DHT22;6789;47.678;9.158;2024-02-26T02:35:38;6.60;99.90
13433;DHT22;6789;47.678;9.158;2024-02-26T02:40:30;6.50;99.90
13433;DHT22;6789;47.678;9.158;2024-02-26T02:45:21;6.50;99.90
13433;DHT22;6789;47.678;9.158;2024-02-26T02:50:13;6.60;99.90
13433;DHT22;6789;47.678;9.158;2024-02-26T02:55:05;6.60;99.90
13433;DHT22;6789;47.678;9.158;2024-02-26T02:59:57;6.60;99.90
13433;DHT22;6789;47.678;9.158;2024-02-26T03:04:49;6.70;99.90
13433;DHT22;6789;47.678;9.158;2024-02-26T03:09:41;6.60;99.90
13433;DHT22;6789;47.678;9.158;2024-02-26T03:14:33;6.60;99.90
13433;DHT22;6789;47.678;9.158;2024-02-26T03:19:24;6.50;99.90
13433;DHT22;6789;47.678;9.158;2024-02-26T03:24:17;6.60;99.90
13433;DHT22;6789;47.678;9.158;2024-02-26T03:29:09;6.70;99.90
13433;DHT22;6789;47.678;9.158;2024-02-26T03:34:01;6.70;99.90
13433;DHT22;6789;47.678;9.158;2024-02-26T03:38:53;6.80;99.90
13433;DHT22;6789;47.678;9.158;2024-02-26T03:43:45;6.90;99.90
13433;DHT22;6789;47.678;9.158;2024-02-26T03:48:37;6.80;99.90
13433;DHT22;6789;47.678;9.158;2024-02-26T03:53:29;6.90;99.90
13433;DHT22;6789;47.678;9.158;2024-02-26T03:58:21;6.70;99.90
13433;DHT22;6789;47.678;9.158;2024-02-26T04:03:13;6.50;99.90
13433;DHT22;6789;47.678;9.158;2024-02-26T04:08:06;6.50;99.90
13433;DHT22;6789;47.678;9.158;2024-02-26T04:12:58;6.50;99.90
13433;DHT22;6789;47.678;9.158;2024-02-26T04:17:50;6.40;99.90
13433;DHT22;6789;47.678;9.158;2024-02-26T04:22:42;6.40;99.90
13433;DHT22;6789;47.678;9.158;2024-02-26T04:27:34;6.40;99.90
13433;DHT22;6789;47.678;9.158;2024-02-26T04:32:26;6.30;99.90
13433;DHT22;6789;47.678;9.158;2024-02-26T04:37:17;6.30;99.90
13433;DHT22;6789;47.678;9.158;2024-02-26T04:42:09;6.40;99.90
13433;DHT22;6789;47.678;9.158;2024-02-26T04:47:01;6.50;99.90
13433;DHT22;6789;47.678;9.158;2024-02-26T04:51:53;6.40;99.90
13433;DHT22;6789;47.678;9.158;2024-02-26T04:56:57;6.50;99.90
13433;DHT22;6789;47.678;9.158;2024-02-26T05:01:49;6.50;99.90
13433;DHT22;6789;47.678;9.158;2024-02-26T05:06:42;6.50;99.90
13433;DHT22;6789;47.678;9.158;2024-02-26T05:11:34;6.40;99.90
13433;DHT22;6789;47.678;9.158;2024-02-26T05:16:26;6.50;99.90
13433;DHT22;6789;47.678;9.158;2024-02-26T05:21:18;6.50;99.90
13433;DHT22;6789;47.678;9.158;2024-02-26T05:26:10;6.60;99.90
13433;DHT22;6789;47.678;9.158;2024-02-26T05:31:02;6.60;99.90
13433;DHT22;6789;47.678;9.158;2024-02-26T05:35:54;6.50;99.90
13433;DHT22;6789;47.678;9.158;2024-02-26T05:40:47;6.50;99.90
13433;DHT22;6789;47.678;9.158;2024-02-26T05:45:38;6.50;99.90
13433;DHT22;6789;47.678;9.158;2024-02-26T05:50:30;6.50;99.90
13433;DHT22;6789;47.678;9.158;2024-02-26T05:55:22;6.50;99.90
13433;DHT22;6789;47.678;9.158;2024-02-26T06:00:14;6.60;99.90
13433;DHT22;6789;47.678;9.158;2024-02-26T06:05:06;6.60;99.90
13433;DHT22;6789;47.678;9.158;2024-02-26T06:10:00;6.60;99.90
13433;DHT22;6789;47.678;9.158;2024-02-26T06:14:54;6.70;99.90
13433;DHT22;6789;47.678;9.158;2024-02-26T06:19:46;6.60;99.90
13433;DHT22;6789;47.678;9.158;2024-02-26T06:24:37;6.50;99.90
13433;DHT22;6789;47.678;9.158;2024-02-26T06:29:29;6.40;99.90
13433;DHT22;6789;47.678;9.158;2024-02-26T06:34:21;6.40;99.90
13433;DHT22;6789;47.678;9.158;2024-02-26T06:39:13;6.60;99.90
13433;DHT22;6789;47.678;9.158;2024-02-26T06:44:07;6.70;99.90
13433;DHT22;6789;47.678;9.158;2024-02-26T06:48:59;6.70;99.90
13433;DHT22;6789;47.678;9.158;2024-02-26T06:53:51;6.70;99.90
13433;DHT22;6789;47.678;9.158;2024-02-26T06:58:43;6.70;99.90
13433;DHT22;6789;47.678;9.158;2024-02-26T07:03:35;6.80;99.90
13433;DHT22;6789;47.678;9.158;2024-02-26T07:08:26;6.90;99.90
13433;DHT22;6789;47.678;9.158;2024-02-26T07:13:18;7.00;99.90
13433;DHT22;6789;47.678;9.158;2024-02-26T07:18:10;7.10;99.90
13433;DHT22;6789;47.678;9.158;2024-02-26T07:23:02;7.30;99.90
13433;DHT22;6789;47.678;9.158;2024-02-26T07:27:54;7.30;99.90
13433;DHT22;6789;47.678;9.158;2024-02-26T07:32:46;7.50;99.90
13433;DHT22;6789;47.678;9.158;2024-02-26T07:37:42;7.60;99.90
13433;DHT22;6789;47.678;9.158;2024-02-26T07:42:33;7.60;99.90
13433;DHT22;6789;47.678;9.158;2024-02-26T07:47:25;7.80;99.90
13433;DHT22;6789;47.678;9.158;2024-02-26T07:52:17;8.00;99.90
13433;DHT22;6789;47.678;9.158;2024-02-26T07:57:09;8.10;99.90
13433;DHT22;6789;47.678;9.158;2024-02-26T08:02:00;8.40;99.90
13433;DHT22;6789;47.678;9.158;2024-02-26T08:06:54;8.50;99.90
13433;DHT22;6789;47.678;9.158;2024-02-26T08:11:46;8.50;99.90
13433;DHT22;6789;47.678;9.158;2024-02-26T08:16:38;8.60;99.90
13433;DHT22;6789;47.678;9.158;2024-02-26T08:21:29;8.80;99.90
13433;DHT22;6789;47.678;9.158;2024-02-26T08:26:21;8.70;99.90
13433;DHT22;6789;47.678;9.158;2024-02-26T08:31:15;8.70;99.90
13433;DHT22;6789;47.678;9.158;2024-02-26T08:36:07;8.80;99.90
13433;DHT22;6789;47.678;9.158;2024-02-26T08:41:01;9.10;99.90
13433;DHT22;6789;47.678;9.158;2024-02-26T08:45:54;9.20;99.90
13433;DHT22;6789;47.678;9.158;2024-02-26T08:50:46;9.40;99.90
13433;DHT22;6789;47.678;9.158;2024-02-26T08:55:37;9.70;99.90
13433;DHT22;6789;47.678;9.158;2024-02-26T09:00:29;9.50;99.90
13433;DHT22;6789;47.678;9.158;2024-02-26T09:05:22;9.70;99.90
13433;DHT22;6789;47.678;9.158;2024-02-26T09:10:14;10.10;99.90
13433;DHT22;6789;47.678;9.158;2024-02-26T09:15:06;9.80;99.90
13433;DHT22;6789;47.678;9.158;2024-02-26T09:19:59;9.90;99.90
13433;DHT22;6789;47.678;9.158;2024-02-26T09:24:51;10.10;99.90
13433;DHT22;6789;47.678;9.158;2024-02-26T09:29:45;10.10;99.90
13433;DHT22;6789;47.678;9.158;2024-02-26T09:34:36;10.10;99.90
13433;DHT22;6789;47.678;9.158;2024-02-26T09:39:32;10.40;99.90
13433;DHT22;6789;47.678;9.158;2024-02-26T09:44:24;10.50;99.90
13433;DHT22;6789;47.678;9.158;2024-02-26T09:49:21;10.40;99.90
13433;DHT22;6789;47.678;9.158;2024-02-26T09:54:17;10.50;99.90
13433;DHT22;6789;47.678;9.158;2024-02-26T09:59:13;10.30;99.90
13433;DHT22;6789;47.678;9.158;2024-02-26T10:04:09;10.30;99.90
13433;DHT22;6789;47.678;9.158;2024-02-26T10:09:02;10.20;99.90
13433;DHT22;6789;47.678;9.158;2024-02-26T10:13:57;10.30;99.90
13433;DHT22;6789;47.678;9.158;2024-02-26T10:18:50;10.60;99.90
13433;DHT22;6789;47.678;9.158;2024-02-26T10:23:47;10.90;99.90
13433;DHT22;6789;47.678;9.158;2024-02-26T10:28:43;10.70;99.90
13433;DHT22;6789;47.678;9.158;2024-02-26T10:33:37;10.70;99.90
13433;DHT22;6789;47.678;9.158;2024-02-26T10:38:35;10.60;99.90
13433;DHT22;6789;47.678;9.158;2024-02-26T10:43:27;10.70;99.90
13433;DHT22;6789;47.678;9.158;2024-02-26T10:48:19;10.50;99.90
13433;DHT22;6789;47.678;9.158;2024-02-26T10:53:21;10.70;99.90
13433;DHT22;6789;47.678;9.158;2024-02-26T10:58:13;10.80;99.90
13433;DHT22;6789;47.678;9.158;2024-02-26T11:03:09;10.80;99.90
13433;DHT22;6789;47.678;9.158;2024-02-26T11:08:03;10.90;99.90
13433;DHT22;6789;47.678;9.158;2024-02-26T11:12:57;10.60;99.90
13433;DHT22;6789;47.678;9.158;2024-02-26T11:17:52;10.80;99.90
13433;DHT22;6789;47.678;9.158;2024-02-26T11:22:46;10.60;99.90
13433;DHT22;6789;47.678;9.158;2024-02-26T11:27:44;10.60;99.90
13433;DHT22;6789;47.678;9.158;2024-02-26T11:38:33;10.50;99.90
13433;DHT22;6789;47.678;9.158;2024-02-26T11:43:49;10.70;99.90
13433;DHT22;6789;47.678;9.158;2024-02-26T11:49:30;10.80;99.90
13433;DHT22;6789;47.678;9.158;2024-02-26T11:54:48;10.60;99.90
13433;DHT22;6789;47.678;9.158;2024-02-26T11:59:44;10.50;99.90
13433;DHT22;6789;47.678;9.158;2024-02-26T12:04:37;10.60;99.90
13433;DHT22;6789;47.678;9.158;2024-02-26T12:09:34;10.90;99.90
13433;DHT22;6789;47.678;9.158;2024-02-26T12:14:26;10.90;99.90
13433;DHT22;6789;47.678;9.158;2024-02-26T12:19:21;11.00;99.90
13433;DHT22;6789;47.678;9.158;2024-02-26T12:24:14;11.40;99.90
13433;DHT22;6789;47.678;9.158;2024-02-26T12:29:08;11.80;99.90
13433;DHT22;6789;47.678;9.158;2024-02-26T12:34:00;12.00;99.90
13433;DHT22;6789;47.678;9.158;2024-02-26T12:38:52;12.00;99.90
13433;DHT22;6789;47.678;9.158;2024-02-26T12:43:44;12.00;99.90
13433;DHT22;6789;47.678;9.158;2024-02-26T12:48:43;12.10;99.90
13433;DHT22;6789;47.678;9.158;2024-02-26T12:53:37;12.40;99.90
13433;DHT22;6789;47.678;9.158;2024-02-26T12:58:29;12.50;99.90
13433;DHT22;6789;47.678;9.158;2024-02-26T13:03:23;12.60;99.90
13433;DHT22;6789;47.678;9.158;2024-02-26T13:08:22;12.90;99.90
13433;DHT22;6789;47.678;9.158;2024-02-26T13:13:15;13.20;99.90
13433;DHT22;6789;47.678;9.158;2024-02-26T13:18:10;13.40;99.90
13433;DHT22;6789;47.678;9.158;2024-02-26T13:23:05;13.10;99.90
13433;DHT22;6789;47.678;9.158;2024-02-26T13:28:08;13.00;99.90
13433;DHT22;6789;47.678;9.158;2024-02-26T13:33:12;13.20;99.90
13433;DHT22;6789;47.678;9.158;2024-02-26T13:38:05;13.10;99.90
13433;DHT22;6789;47.678;9.158;2024-02-26T13:43:00;13.00;99.90
13433;DHT22;6789;47.678;9.158;2024-02-26T13:47:52;13.10;99.90
13433;DHT22;6789;47.678;9.158;2024-02-26T13:52:44;12.90;99.90
13433;DHT22;6789;47.678;9.158;2024-02-26T13:57:36;12.80;99.90
13433;DHT22;6789;47.678;9.158;2024-02-26T14:02:28;12.80;99.90
13433;DHT22;6789;47.678;9.158;2024-02-26T14:07:19;12.80;99.90
13433;DHT22;6789;47.678;9.158;2024-02-26T14:12:11;12.90;99.90
13433;DHT22;6789;47.678;9.158;2024-02-26T14:17:03;12.70;99.90
13433;DHT22;6789;47.678;9.158;2024-02-26T14:21:55;12.70;99.90
13433;DHT22;6789;47.678;9.158;2024-02-26T14:26:47;12.80;99.90
13433;DHT22;6789;47.678;9.158;2024-02-26T14:31:39;12.90;99.90
13433;DHT22;6789;47.678;9.158;2024-02-26T14:36:31;13.00;99.90
13433;DHT22;6789;47.678;9.158;2024-02-26T14:41:23;12.70;99.90
13433;DHT22;6789;47.678;9.158;2024-02-26T14:46:15;12.50;99.90
13433;DHT22;6789;47.678;9.158;2024-02-26T14:51:06;12.20;99.90
13433;DHT22;6789;47.678;9.158;2024-02-26T14:55:58;12.00;99.90
13433;DHT22;6789;47.678;9.158;2024-02-26T15:00:51;11.90;99.90
13433;DHT22;6789;47.678;9.158;2024-02-26T15:05:43;11.80;99.90
13433;DHT22;6789;47.678;9.158;2024-02-26T15:10:35;11.70;99.90
13433;DHT22;6789;47.678;9.158;2024-02-26T15:15:26;11.60;99.90
13433;DHT22;6789;47.678;9.158;2024-02-26T15:20:19;11.50;99.90
13433;DHT22;6789;47.678;9.158;2024-02-26T15:25:11;11.50;99.90
13433;DHT22;6789;47.678;9.158;2024-02-26T15:30:07;11.50;99.90
13433;DHT22;6789;47.678;9.158;2024-02-26T15:34:59;11.50;99.90
13433;DHT22;6789;47.678;9.158;2024-02-26T15:39:51;11.40;99.90
13433;DHT22;6789;47.678;9.158;2024-02-26T15:44:43;11.40;99.90
13433;DHT22;6789;47.678;9.158;2024-02-26T15:49:35;11.50;99.90
13433;DHT22;6789;47.678;9.158;2024-02-26T15:54:27;11.50;99.90
13433;DHT22;6789;47.678;9.158;2024-02-26T15:59:19;11.60;99.90
13433;DHT22;6789;47.678;9.158;2024-02-26T16:04:11;11.50;99.90
13433;DHT22;6789;47.678;9.158;2024-02-26T16:09:03;11.50;99.90
13433;DHT22;6789;47.678;9.158;2024-02-26T16:14:26;11.50;99.90
13433;DHT22;6789;47.678;9.158;2024-02-26T16:19:54;11.50;99.90
13433;DHT22;6789;47.678;9.158;2024-02-26T16:24:46;11.50;99.90
13433;DHT22;6789;47.678;9.158;2024-02-26T16:29:37;11.60;99.90
13433;DHT22;6789;47.678;9.158;2024-02-26T16:34:29;11.50;99.90
13433;DHT22;6789;47.678;9.158;2024-02-26T16:39:21;11.50;99.90
13433;DHT22;6789;47.678;9.158;2024-02-26T16:44:13;11.60;99.90
13433;DHT22;6789;47.678;9.158;2024-02-26T16:49:05;11.70;99.90
13433;DHT22;6789;47.678;9.158;2024-02-26T16:53:59;11.60;99.90
13433;DHT22;6789;47.678;9.158;2024-02-26T16:58:51;11.50;99.90
13433;DHT22;6789;47.678;9.158;2024-02-26T17:03:43;11.40;99.90
13433;DHT22;6789;47.678;9.158;2024-02-26T17:08:34;11.40;99.90
13433;DHT22;6789;47.678;9.158;2024-02-26T17:13:27;11.00;99.90
13433;DHT22;6789;47.678;9.158;2024-02-26T17:18:22;11.00;99.90
13433;DHT22;6789;47.678;9.158;2024-02-26T17:23:14;11.10;99.90
13433;DHT22;6789;47.678;9.158;2024-02-26T17:28:06;11.20;99.90
13433;DHT22;6789;47.678;9.158;2024-02-26T17:32:58;11.10;99.90
13433;DHT22;6789;47.678;9.158;2024-02-26T17:37:50;10.90;99.90
13433;DHT22;6789;47.678;9.158;2024-02-26T17:42:42;10.80;99.90
13433;DHT22;6789;47.678;9.158;2024-02-26T17:47:34;10.70;99.90
13433;DHT22;6789;47.678;9.158;2024-02-26T17:52:26;10.70;99.90
13433;DHT22;6789;47.678;9.158;2024-02-26T17:57:18;10.60;99.90
13433;DHT22;6789;47.678;9.158;2024-02-26T18:02:11;10.70;99.90
13433;DHT22;6789;47.678;9.158;2024-02-26T18:07:03;10.70;99.90
13433;DHT22;6789;47.678;9.158;2024-02-26T18:11:55;10.70;99.90
13433;DHT22;6789;47.678;9.158;2024-02-26T18:16:47;10.50;99.90
13433;DHT22;6789;47.678;9.158;2024-02-26T18:21:39;10.20;99.90
13433;DHT22;6789;47.678;9.158;2024-02-26T18:26:31;10.10;99.90
13433;DHT22;6789;47.678;9.158;2024-02-26T18:31:23;10.00;99.90
13433;DHT22;6789;47.678;9.158;2024-02-26T18:36:15;10.10;99.90
13433;DHT22;6789;47.678;9.158;2024-02-26T18:41:17;10.00;99.90
13433;DHT22;6789;47.678;9.158;2024-02-26T18:46:13;10.00;99.90
13433;DHT22;6789;47.678;9.158;2024-02-26T18:51:05;10.00;99.90
13433;DHT22;6789;47.678;9.158;2024-02-26T18:55:57;9.90;99.90
13433;DHT22;6789;47.678;9.158;2024-02-26T19:00:49;9.70;99.90
13433;DHT22;6789;47.678;9.158;2024-02-26T19:05:41;9.60;99.90
13433;DHT22;6789;47.678;9.158;2024-02-26T19:10:33;9.50;99.90
13433;DHT22;6789;47.678;9.158;2024-02-26T19:15:25;9.50;99.90
13433;DHT22;6789;47.678;9.158;2024-02-26T19:20:17;9.70;99.90
13433;DHT22;6789;47.678;9.158;2024-02-26T19:25:12;9.90;99.90
13433;DHT22;6789;47.678;9.158;2024-02-26T19:30:04;10.00;99.90
13433;DHT22;6789;47.678;9.158;2024-02-26T19:34:56;10.00;99.90
13433;DHT22;6789;47.678;9.158;2024-02-26T19:39:48;10.10;99.90
13433;DHT22;6789;47.678;9.158;2024-02-26T19:44:40;10.10;99.90
13433;DHT22;6789;47.678;9.158;2024-02-26T19:49:32;10.00;99.90
13433;DHT22;6789;47.678;9.158;2024-02-26T19:54:24;9.90;99.90
13433;DHT22;6789;47.678;9.158;2024-02-26T19:59:16;9.90;99.90
13433;DHT22;6789;47.678;9.158;2024-02-26T20:04:08;9.80;99.90
13433;DHT22;6789;47.678;9.158;2024-02-26T20:09:04;9.80;99.90
13433;DHT22;6789;47.678;9.158;2024-02-26T20:13:55;9.80;99.90
13433;DHT22;6789;47.678;9.158;2024-02-26T20:18:47;9.70;99.90
13433;DHT22;6789;47.678;9.158;2024-02-26T20:23:40;9.60;99.90
13433;DHT22;6789;47.678;9.158;2024-02-26T20:28:33;9.50;99.90
13433;DHT22;6789;47.678;9.158;2024-02-26T20:33:27;9.30;99.90
13433;DHT22;6789;47.678;9.158;2024-02-26T20:38:19;9.10;99.90
13433;DHT22;6789;47.678;9.158;2024-02-26T20:43:11;9.00;99.90
13433;DHT22;6789;47.678;9.158;2024-02-26T20:48:03;8.80;99.90
13433;DHT22;6789;47.678;9.158;2024-02-26T20:52:55;8.70;99.90
13433;DHT22;6789;47.678;9.158;2024-02-26T20:57:47;8.90;99.90
13433;DHT22;6789;47.678;9.158;2024-02-26T21:02:38;8.80;99.90
13433;DHT22;6789;47.678;9.158;2024-02-26T21:07:31;8.90;99.90
13433;DHT22;6789;47.678;9.158;2024-02-26T21:12:24;8.90;99.90
13433;DHT22;6789;47.678;9.158;2024-02-26T21:17:16;8.90;99.90
13433;DHT22;6789;47.678;9.158;2024-02-26T21:22:08;8.80;99.90
13433;DHT22;6789;47.678;9.158;2024-02-26T21:27:01;8.70;99.90
13433;DHT22;6789;47.678;9.158;2024-02-26T21:31:53;8.70;99.90
13433;DHT22;6789;47.678;9.158;2024-02-26T21:36:45;8.70;99.90
13433;DHT22;6789;47.678;9.158;2024-02-26T21:41:37;8.70;99.90
13433;DHT22;6789;47.678;9.158;2024-02-26T21:46:28;8.70;99.90
13433;DHT22;6789;47.678;9.158;2024-02-26T21:51:20;8.80;99.90
13433;DHT22;6789;47.678;9.158;2024-02-26T21:56:12;8.80;99.90
13433;DHT22;6789;47.678;9.158;2024-02-26T22:01:04;8.60;99.90
13433;DHT22;6789;47.678;9.158;2024-02-26T22:05:56;8.30;99.90
13433;DHT22;6789;47.678;9.158;2024-02-26T22:10:56;8.20;99.90
13433;DHT22;6789;47.678;9.158;2024-02-26T22:15:49;8.20;99.90
13433;DHT22;6789;47.678;9.158;2024-02-26T22:20:41;8.20;99.90
13433;DHT22;6789;47.678;9.158;2024-02-26T22:25:33;8.30;99.90
13433;DHT22;6789;47.678;9.158;2024-02-26T22:30:32;8.10;99.90
13433;DHT22;6789;47.678;9.158;2024-02-26T22:35:38;7.90;99.90
13433;DHT22;6789;47.678;9.158;2024-02-26T22:40:31;7.90;99.90
13433;DHT22;6789;47.678;9.158;2024-02-26T22:45:23;7.80;99.90
13433;DHT22;6789;47.678;9.158;2024-02-26T22:50:19;7.80;99.90
13433;DHT22;6789;47.678;9.158;2024-02-26T22:55:12;7.80;99.90
13433;DHT22;6789;47.678;9.158;2024-02-26T23:00:18;7.80;99.90
13433;DHT22;6789;47.678;9.158;2024-02-26T23:05:22;7.80;99.90
13433;DHT22;6789;47.678;9.158;2024-02-26T23:10:15;7.80;99.90
13433;DHT22;6789;47.678;9.158;2024-02-26T23:15:08;7.90;99.90
13433;DHT22;6789;47.678;9.158;2024-02-26T23:20:18;8.00;99.90
13433;DHT22;6789;47.678;9.158;2024-02-26T23:25:12;7.90;99.90
13433;DHT22;6789;47.678;9.158;2024-02-26T23:30:05;7.90;99.90
13433;DHT22;6789;47.678;9.158;2024-02-26T23:34:57;7.90;99.90
13433;DHT22;6789;47.678;9.158;2024-02-26T23:39:49;7.90;99.90
13433;DHT22;6789;47.678;9.158;2024-02-26T23:44:41;7.90;99.90
13433;DHT22;6789;47.678;9.158;2024-02-26T23:49:33;7.90;99.90
13433;DHT22;6789;47.678;9.158;2024-02-26T23:54:25;7.90;99.90
13433;DHT22;6789;47.678;9.158;2024-02-26T23:59:17;7.70;99.90
